createdAt,value
2022-09-28T00:01:24.286Z,3.92
2022-09-28T00:03:54.623Z,3.42
2022-09-28T00:06:24.679Z,3.63
2022-09-28T00:08:52.459Z,4.20
2022-09-28T00:11:21.492Z,3.83
2022-09-28T00:13:56.530Z,3.97
2022-09-28T00:16:27.528Z,3.28
2022-09-28T00:18:55.655Z,4.00
2022-09-28T00:21:25.907Z,3.97
2022-09-28T00:24:14.900Z,3.92
2022-09-28T00:26:44.366Z,3.70
2022-09-28T00:29:23.020Z,3.88
2022-09-28T00:32:00.485Z,3.70
2022-09-28T00:34:46.300Z,3.55
2022-09-28T00:37:15.250Z,3.70
2022-09-28T00:39:43.430Z,3.58
2022-09-28T00:42:23.035Z,3.28
2022-09-28T00:44:57.739Z,3.70
2022-09-28T00:47:37.978Z,3.70
2022-09-28T00:50:19.847Z,3.25
2022-09-28T00:53:06.369Z,3.13
2022-09-28T00:55:48.247Z,3.10
2022-09-28T00:58:21.498Z,3.22
2022-09-28T01:00:49.637Z,2.92
2022-09-28T01:05:46.480Z,2.97
2022-09-28T01:08:15.456Z,3.38
2022-09-28T01:10:43.723Z,3.40
2022-09-28T01:13:14.644Z,3.00
2022-09-28T01:15:53.177Z,3.03
2022-09-28T01:18:49.205Z,2.75
2022-09-28T01:21:18.923Z,2.90
2022-09-28T01:24:19.622Z,2.65
2022-09-28T01:27:22.624Z,2.72
2022-09-28T01:30:09.473Z,2.53
2022-09-28T01:32:38.060Z,3.08
2022-09-28T01:35:13.534Z,3.08
2022-09-28T01:37:52.268Z,3.05
2022-09-28T01:40:22.759Z,2.42
2022-09-28T01:43:02.440Z,2.92
2022-09-28T01:45:34.848Z,2.65
2022-09-28T01:48:06.325Z,3.25
2022-09-28T01:50:39.527Z,3.50
2022-09-28T01:53:22.050Z,3.47
2022-09-28T01:55:55.379Z,3.13
2022-09-28T01:58:51.481Z,3.20
2022-09-28T02:01:28.840Z,2.80
2022-09-28T02:04:04.728Z,2.90
2022-09-28T02:06:47.684Z,2.92
2022-09-28T02:09:22.360Z,3.22
2022-09-28T02:11:59.062Z,2.90
2022-09-28T02:14:29.187Z,2.42
2022-09-28T02:16:57.939Z,3.13
2022-09-28T02:19:29.474Z,2.90
2022-09-28T02:22:10.066Z,2.80
2022-09-28T02:24:50.801Z,3.30
2022-09-28T02:27:35.777Z,3.30
2022-09-28T02:30:05.803Z,3.35
2022-09-28T02:32:40.189Z,3.40
2022-09-28T02:35:15.315Z,3.42
2022-09-28T02:37:44.379Z,3.15
2022-09-28T02:40:18.769Z,3.15
2022-09-28T02:43:10.710Z,3.30
2022-09-28T02:46:06.290Z,3.08
2022-09-28T02:49:17.489Z,3.30
2022-09-28T02:51:58.432Z,3.15
2022-09-28T02:54:44.488Z,3.08
2022-09-28T02:57:33.618Z,3.25
2022-09-28T03:00:10.155Z,3.38
2022-09-28T03:02:55.694Z,3.38
2022-09-28T03:05:41.495Z,3.28
2022-09-28T03:08:27.711Z,3.63
2022-09-28T03:11:05.546Z,3.40
2022-09-28T03:13:35.293Z,3.20
2022-09-28T03:16:15.735Z,3.42
2022-09-28T03:18:46.033Z,3.33
2022-09-28T03:21:14.896Z,3.47
2022-09-28T03:23:42.970Z,3.30
2022-09-28T03:26:14.759Z,3.33
2022-09-28T03:28:43.252Z,3.50
2022-09-28T03:31:16.576Z,3.00
2022-09-28T03:33:44.264Z,3.67
2022-09-28T03:36:11.740Z,3.63
2022-09-28T03:38:39.602Z,3.70
2022-09-28T03:41:08.141Z,3.60
2022-09-28T03:43:38.048Z,3.50
2022-09-28T03:46:06.132Z,3.78
2022-09-28T03:48:40.263Z,4.00
2022-09-28T03:51:12.157Z,3.92
2022-09-28T03:53:40.138Z,4.25
2022-09-28T03:58:39.521Z,3.40
2022-09-28T04:01:17.496Z,4.05
2022-09-28T04:06:15.021Z,3.80
2022-09-28T04:08:43.349Z,3.92
2022-09-28T04:11:11.771Z,3.50
2022-09-28T04:13:39.630Z,3.88
2022-09-28T04:16:11.703Z,4.25
2022-09-28T04:18:40.171Z,4.20
2022-09-28T04:21:46.563Z,4.00
2022-09-28T04:24:15.471Z,4.18
2022-09-28T04:26:42.931Z,4.45
2022-09-28T04:29:19.387Z,4.03
2022-09-28T04:31:55.813Z,4.28
2022-09-28T04:34:35.091Z,3.70
2022-09-28T04:37:03.338Z,4.10
2022-09-28T04:39:30.909Z,4.22
2022-09-28T04:41:58.609Z,4.25
2022-09-28T04:44:27.959Z,4.05
2022-09-28T04:47:05.289Z,4.00
2022-09-28T04:49:35.356Z,4.25
2022-09-28T04:52:08.905Z,4.50
2022-09-28T04:54:36.534Z,4.30
2022-09-28T04:57:05.982Z,4.68
2022-09-28T04:59:33.674Z,4.43
2022-09-28T05:02:01.428Z,4.38
2022-09-28T05:04:47.459Z,5.13
2022-09-28T05:07:14.870Z,3.97
2022-09-28T05:09:42.399Z,4.03
2022-09-28T05:12:09.889Z,4.45
2022-09-28T05:17:06.280Z,4.60
2022-09-28T05:19:48.758Z,4.75
2022-09-28T05:22:16.422Z,4.60
2022-09-28T05:24:47.199Z,4.57
2022-09-28T05:27:15.321Z,4.80
2022-09-28T05:29:46.113Z,5.18
2022-09-28T05:32:44.284Z,4.93
2022-09-28T05:35:20.275Z,5.15
2022-09-28T05:37:49.396Z,5.03
2022-09-28T05:42:44.588Z,5.00
2022-09-28T05:45:13.815Z,5.32
2022-09-28T05:47:46.119Z,5.13
2022-09-28T05:50:16.611Z,5.22
2022-09-28T05:52:44.451Z,5.10
2022-09-28T05:55:12.388Z,5.45
2022-09-28T05:57:39.888Z,5.53
2022-09-28T06:00:09.444Z,4.90
2022-09-28T06:03:06.703Z,4.53
2022-09-28T06:05:37.668Z,5.03
2022-09-28T06:08:08.222Z,5.10
2022-09-28T06:10:35.862Z,5.68
2022-09-28T06:13:03.644Z,6.10
2022-09-28T06:15:35.875Z,6.13
2022-09-28T06:18:11.647Z,6.25
2022-09-28T06:21:03.587Z,6.13
2022-09-28T06:23:34.507Z,6.13
2022-09-28T06:26:02.015Z,6.25
2022-09-28T06:28:31.067Z,6.22
2022-09-28T06:31:00.628Z,5.75
2022-09-28T06:33:29.529Z,6.18
2022-09-28T06:38:26.586Z,6.07
2022-09-28T06:40:54.355Z,6.40
2022-09-28T06:43:24.187Z,6.45
2022-09-28T06:48:56.349Z,6.97
2022-09-28T06:51:50.034Z,6.20
2022-09-28T06:54:37.226Z,6.70
2022-09-28T06:57:29.170Z,7.47
2022-09-28T06:59:56.707Z,8.00
2022-09-28T07:02:24.211Z,7.97
2022-09-28T07:05:27.600Z,7.28
2022-09-28T07:08:04.970Z,7.55
2022-09-28T07:13:50.251Z,7.13
2022-09-28T07:16:26.782Z,7.55
2022-09-28T07:18:57.776Z,7.47
2022-09-28T07:21:30.115Z,7.75
2022-09-28T07:24:01.638Z,9.02
2022-09-28T07:26:47.368Z,7.03
2022-09-28T07:29:32.406Z,7.90
2022-09-28T07:32:34.992Z,8.30
2022-09-28T07:35:34.948Z,7.50
2022-09-28T07:38:05.684Z,7.80
2022-09-28T07:40:54.261Z,8.52
2022-09-28T07:43:22.537Z,8.10
2022-09-28T07:45:56.888Z,8.45
2022-09-28T07:48:24.999Z,8.15
2022-09-28T07:51:11.530Z,8.82
2022-09-28T07:53:41.235Z,8.75
2022-09-28T07:56:28.028Z,9.25
2022-09-28T07:59:04.151Z,8.57
2022-09-28T08:01:40.610Z,7.93
2022-09-28T08:04:10.960Z,7.85
2022-09-28T08:06:41.304Z,8.35
2022-09-28T08:09:11.172Z,8.05
2022-09-28T08:12:08.412Z,8.10
2022-09-28T08:14:52.715Z,8.10
2022-09-28T08:17:35.582Z,7.80
2022-09-28T08:20:27.415Z,8.05
2022-09-28T08:22:55.082Z,8.65
2022-09-28T08:25:22.568Z,7.03
2022-09-28T08:27:50.141Z,7.68
2022-09-28T08:30:17.915Z,7.28
2022-09-28T08:32:52.351Z,7.65
2022-09-28T08:35:41.806Z,6.70
2022-09-28T08:38:31.062Z,7.82
2022-09-28T08:43:54.524Z,7.03
2022-09-28T08:46:36.139Z,7.03
2022-09-28T08:49:44.078Z,6.78
2022-09-28T08:52:34.571Z,7.43
2022-09-28T08:55:31.556Z,7.90
2022-09-28T08:58:18.853Z,7.07
2022-09-28T09:00:48.890Z,7.22
2022-09-28T09:03:28.074Z,7.75
2022-09-28T09:06:35.278Z,6.45
2022-09-28T09:09:46.301Z,7.25
2022-09-28T09:12:45.968Z,7.45
2022-09-28T09:15:50.831Z,6.05
2022-09-28T09:18:47.944Z,6.53
2022-09-28T09:21:28.829Z,6.77
2022-09-28T09:24:03.568Z,5.95
2022-09-28T09:26:39.259Z,5.88
2022-09-28T09:29:27.243Z,6.10
2022-09-28T09:32:18.788Z,5.40
2022-09-28T09:34:47.390Z,5.45
2022-09-28T09:38:00.194Z,6.35
2022-09-28T09:41:35.598Z,5.60
2022-09-28T09:44:21.504Z,5.47
2022-09-28T09:47:04.538Z,5.55
2022-09-28T09:50:08.331Z,6.28
2022-09-28T09:52:46.476Z,5.68
2022-09-28T09:55:15.739Z,5.17
2022-09-28T09:58:31.404Z,5.00
2022-09-28T10:01:16.189Z,5.30
2022-09-28T10:04:04.872Z,5.30
2022-09-28T10:06:36.304Z,5.28
2022-09-28T10:09:20.027Z,4.70
2022-09-28T10:11:50.205Z,3.53
2022-09-28T10:14:24.356Z,3.25
2022-09-28T10:17:03.849Z,3.38
2022-09-28T10:19:50.235Z,3.17
2022-09-28T10:22:36.126Z,2.80
2022-09-28T10:25:12.705Z,3.00
2022-09-28T10:27:46.850Z,2.88
2022-09-28T10:30:15.927Z,3.20
2022-09-28T10:32:46.541Z,2.45
2022-09-28T10:35:39.343Z,2.85
2022-09-28T10:38:18.567Z,1.85
2022-09-28T10:41:13.431Z,1.65
2022-09-28T10:44:10.566Z,1.60
2022-09-28T10:47:02.514Z,1.50
2022-09-28T10:49:47.030Z,1.55
2022-09-28T10:52:41.938Z,1.73
2022-09-28T10:55:33.524Z,1.10
2022-09-28T11:00:45.279Z,1.30
2022-09-28T11:03:28.944Z,0.95
2022-09-28T11:06:07.461Z,1.30
2022-09-28T11:08:41.687Z,1.40
2022-09-28T11:11:15.272Z,1.20
2022-09-28T11:13:47.638Z,1.17
2022-09-28T11:16:23.412Z,1.00
2022-09-28T11:18:53.922Z,0.80
2022-09-28T11:21:32.733Z,0.95
2022-09-28T11:24:19.312Z,0.85
2022-09-28T11:26:54.440Z,1.25
2022-09-28T11:29:31.202Z,1.33
2022-09-28T11:32:18.796Z,1.20
2022-09-28T11:35:05.223Z,1.20
2022-09-28T11:37:48.631Z,1.27
2022-09-28T11:40:40.695Z,1.15
2022-09-28T11:43:35.035Z,1.38
2022-09-28T11:46:14.788Z,1.30
2022-09-28T11:48:49.298Z,1.27
2022-09-28T11:51:27.114Z,1.23
2022-09-28T11:59:38.743Z,1.20
2022-09-28T12:02:18.769Z,1.27
2022-09-28T12:05:01.617Z,1.05
2022-09-28T12:08:08.777Z,1.10
2022-09-28T12:11:13.088Z,1.20
2022-09-28T12:14:09.973Z,0.95
2022-09-28T12:17:05.627Z,1.15
2022-09-28T12:19:45.271Z,1.05
2022-09-28T12:22:21.190Z,1.20
2022-09-28T12:24:55.427Z,1.23
2022-09-28T12:27:51.173Z,1.40
2022-09-28T12:30:25.279Z,1.13
2022-09-28T12:33:04.455Z,1.02
2022-09-28T12:35:50.565Z,1.15
2022-09-28T12:38:29.953Z,1.30
2022-09-28T12:40:57.996Z,1.30
2022-09-28T12:43:31.647Z,1.10
2022-09-28T12:46:30.842Z,1.10
2022-09-28T12:52:31.780Z,1.00
2022-09-28T12:55:05.107Z,1.05
2022-09-28T12:57:41.619Z,1.17
2022-09-28T13:00:17.474Z,1.10
2022-09-28T13:03:07.053Z,1.10
2022-09-28T13:05:35.112Z,0.90
2022-09-28T13:08:11.271Z,1.40
2022-09-28T13:10:47.196Z,1.30
2022-09-28T13:13:15.115Z,1.00
2022-09-28T13:15:48.461Z,1.23
2022-09-28T13:18:53.534Z,1.25
2022-09-28T13:21:34.315Z,1.25
2022-09-28T13:24:27.855Z,0.98
2022-09-28T13:26:56.623Z,1.02
2022-09-28T13:29:26.972Z,1.10
2022-09-28T13:31:57.902Z,1.17
2022-09-28T13:34:32.565Z,1.23
2022-09-28T13:37:18.073Z,1.05
2022-09-28T13:39:46.209Z,1.02
2022-09-28T13:42:35.064Z,1.00
2022-09-28T13:45:20.934Z,1.10
2022-09-28T13:48:06.127Z,1.05
2022-09-28T13:50:59.407Z,1.17
2022-09-28T13:54:15.752Z,1.10
2022-09-28T13:56:56.893Z,0.90
2022-09-28T13:59:29.784Z,1.20
2022-09-28T14:02:13.948Z,1.10
2022-09-28T14:05:01.903Z,1.20
2022-09-28T14:07:35.732Z,0.93
2022-09-28T14:10:22.028Z,1.20
2022-09-28T14:12:54.356Z,1.20
2022-09-28T14:15:36.830Z,1.08
2022-09-28T14:18:15.633Z,1.15
2022-09-28T14:21:05.532Z,0.93
2022-09-28T14:24:13.816Z,0.93
2022-09-28T14:27:03.219Z,1.13
2022-09-28T14:29:34.240Z,1.00
2022-09-28T14:32:20.590Z,1.40
2022-09-28T14:35:00.944Z,1.02
2022-09-28T14:37:56.350Z,0.98
2022-09-28T14:41:11.010Z,0.98
2022-09-28T14:43:44.505Z,0.90
2022-09-28T14:46:17.278Z,0.90
2022-09-28T14:49:10.881Z,0.93
2022-09-28T14:51:40.939Z,0.88
2022-09-28T14:54:11.026Z,1.30
2022-09-28T14:56:40.271Z,0.77
2022-09-28T14:59:17.255Z,1.10
2022-09-28T15:01:54.139Z,0.85
2022-09-28T15:04:25.908Z,1.13
2022-09-28T15:06:54.060Z,0.88
2022-09-28T15:09:39.164Z,0.82
2022-09-28T15:12:28.332Z,0.90
2022-09-28T15:15:17.223Z,1.10
2022-09-28T15:17:52.846Z,0.98
2022-09-28T15:20:25.617Z,0.70
2022-09-28T15:22:57.792Z,0.90
2022-09-28T15:25:31.775Z,1.00
2022-09-28T15:28:06.482Z,1.00
2022-09-28T15:30:36.534Z,1.50
2022-09-28T15:33:23.539Z,1.70
2022-09-28T15:36:02.070Z,1.35
2022-09-28T15:38:32.384Z,1.13
2022-09-28T15:41:04.453Z,1.48
2022-09-28T15:43:33.909Z,1.05
2022-09-28T15:46:21.130Z,1.17
2022-09-28T15:48:51.847Z,1.20
2022-09-28T15:51:24.132Z,1.15
2022-09-28T15:53:58.222Z,0.93
2022-09-28T15:56:26.929Z,0.75
2022-09-28T15:59:15.664Z,0.82
2022-09-28T16:01:44.341Z,1.17
2022-09-28T16:04:33.921Z,1.05
2022-09-28T16:07:10.301Z,1.13
2022-09-28T16:09:56.700Z,1.00
2022-09-28T16:12:31.235Z,1.08
2022-09-28T16:15:18.211Z,1.00
2022-09-28T16:17:57.778Z,1.13
2022-09-28T16:20:30.015Z,1.38
2022-09-28T16:23:05.690Z,1.10
2022-09-28T16:25:37.428Z,1.10
2022-09-28T16:28:06.702Z,1.15
2022-09-28T16:30:34.816Z,1.70
2022-09-28T16:33:26.463Z,1.50
2022-09-28T16:35:54.378Z,1.50
2022-09-28T16:38:21.878Z,1.40
2022-09-28T16:40:53.601Z,1.52
2022-09-28T16:43:30.204Z,1.30
2022-09-28T16:46:00.706Z,1.30
2022-09-28T16:48:31.520Z,1.10
2022-09-28T16:50:59.428Z,1.70
2022-09-28T16:53:46.347Z,1.55
2022-09-28T16:56:14.239Z,1.60
2022-09-28T16:58:42.522Z,1.60
2022-09-28T17:01:11.642Z,1.67
2022-09-28T17:03:42.350Z,2.17
2022-09-28T17:06:12.235Z,1.88
2022-09-28T17:08:40.040Z,1.80
2022-09-28T17:11:16.832Z,2.10
2022-09-28T17:13:47.510Z,2.03
2022-09-28T17:16:18.910Z,2.47
2022-09-28T17:18:48.014Z,1.83
2022-09-28T17:21:18.673Z,1.77
2022-09-28T17:23:47.820Z,1.80
2022-09-28T17:26:30.755Z,1.50
2022-09-28T17:28:59.410Z,1.40
2022-09-28T17:31:27.385Z,1.50
2022-09-28T17:33:55.118Z,1.60
2022-09-28T17:36:22.697Z,2.08
2022-09-28T17:38:51.742Z,2.10
2022-09-28T17:41:21.066Z,1.83
2022-09-28T17:43:49.364Z,1.98
2022-09-28T17:46:28.041Z,1.92
2022-09-28T17:48:59.377Z,1.85
2022-09-28T17:51:32.355Z,1.67
2022-09-28T17:54:01.120Z,2.42
2022-09-28T17:56:32.391Z,2.80
2022-09-28T17:59:06.102Z,2.67
2022-09-28T18:01:39.739Z,2.40
2022-09-28T18:04:13.222Z,2.60
2022-09-28T18:06:46.516Z,2.90
2022-09-28T18:09:15.303Z,3.40
2022-09-28T18:11:45.342Z,3.88
2022-09-28T18:14:13.012Z,3.70
2022-09-28T18:16:40.943Z,3.85
2022-09-28T18:19:08.350Z,4.22
2022-09-28T18:21:35.976Z,4.25
2022-09-28T18:24:03.819Z,5.32
2022-09-28T18:26:31.299Z,4.70
2022-09-28T18:28:58.764Z,5.22
2022-09-28T18:31:27.651Z,5.30
2022-09-28T18:34:00.926Z,4.30
2022-09-28T18:36:33.743Z,4.25
2022-09-28T18:39:01.689Z,4.13
2022-09-28T18:41:29.376Z,3.65
2022-09-28T18:44:00.768Z,3.45
2022-09-28T18:46:29.978Z,2.90
2022-09-28T18:48:57.578Z,3.10
2022-09-28T18:51:25.132Z,3.05
2022-09-28T18:53:52.596Z,3.15
2022-09-28T18:56:22.845Z,3.20
2022-09-28T18:58:53.364Z,3.22
2022-09-28T19:01:29.847Z,3.92
2022-09-28T19:04:06.313Z,2.90
2022-09-28T19:06:36.943Z,3.70
2022-09-28T19:09:05.046Z,2.97
2022-09-28T19:11:32.644Z,3.33
2022-09-28T19:14:00.469Z,3.53
2022-09-28T19:16:30.060Z,3.30
2022-09-28T19:18:58.732Z,3.53
2022-09-28T19:21:27.274Z,3.28
2022-09-28T19:23:55.513Z,3.65
2022-09-28T19:28:51.921Z,3.58
2022-09-28T19:31:20.089Z,3.90
2022-09-28T19:33:48.140Z,3.47
2022-09-28T19:38:46.554Z,5.20
2022-09-28T19:44:19.387Z,4.68
2022-09-28T19:46:47.509Z,4.25
2022-09-28T19:49:19.632Z,4.57
2022-09-28T19:52:11.410Z,4.15
2022-09-28T19:54:37.442Z,4.40
2022-09-28T19:57:07.700Z,4.03
2022-09-28T19:59:37.111Z,3.63
2022-09-28T20:02:08.341Z,3.20
2022-09-28T20:04:36.149Z,3.95
2022-09-28T20:07:05.214Z,3.63
2022-09-28T20:09:33.200Z,3.90
2022-09-28T20:12:00.801Z,4.05
2022-09-28T20:14:34.030Z,3.83
2022-09-28T20:17:04.147Z,3.83
2022-09-28T20:19:31.589Z,3.75
2022-09-28T20:22:03.141Z,3.67
2022-09-28T20:24:31.907Z,3.65
2022-09-28T20:27:01.146Z,3.60
2022-09-28T20:29:29.224Z,3.78
2022-09-28T20:31:56.724Z,3.85
2022-09-28T20:34:24.219Z,3.92
2022-09-28T20:36:51.711Z,3.83
2022-09-28T20:39:19.400Z,3.70
2022-09-28T20:41:49.107Z,3.53
2022-09-28T20:44:19.271Z,3.45
2022-09-28T20:46:50.298Z,3.65
2022-09-28T20:49:17.752Z,3.50
2022-09-28T20:51:45.398Z,3.38
2022-09-28T20:54:13.143Z,3.63
2022-09-28T20:56:40.697Z,3.47
2022-09-28T20:59:11.354Z,3.42
2022-09-28T21:01:39.526Z,4.00
2022-09-28T21:09:05.187Z,3.67
2022-09-28T21:11:34.232Z,4.15
2022-09-28T21:14:04.079Z,4.07
2022-09-28T21:16:33.375Z,3.88
2022-09-28T21:19:00.808Z,4.20
2022-09-28T21:21:30.470Z,4.40
2022-09-28T21:23:58.634Z,3.88
2022-09-28T21:26:28.405Z,3.88
2022-09-28T21:28:58.340Z,4.50
2022-09-28T21:31:29.485Z,3.65
2022-09-28T21:33:58.350Z,4.07
2022-09-28T21:36:26.310Z,3.70
2022-09-28T21:38:55.970Z,4.68
2022-09-28T21:41:24.665Z,3.70
2022-09-28T21:43:52.134Z,3.65
2022-09-28T21:46:21.967Z,4.00
2022-09-28T21:48:53.765Z,4.10
2022-09-28T21:51:21.763Z,3.72
2022-09-28T21:53:49.368Z,3.80
2022-09-28T21:56:17.464Z,4.00
2022-09-28T22:01:19.471Z,3.63
2022-09-28T22:03:54.040Z,3.90
2022-09-28T22:06:23.877Z,3.90
2022-09-28T22:08:51.647Z,3.90
2022-09-28T22:11:23.936Z,3.70
2022-09-28T22:13:54.430Z,3.80
2022-09-28T22:16:24.074Z,3.95
2022-09-28T22:18:51.693Z,4.13
2022-09-28T22:21:30.462Z,4.10
2022-09-28T22:24:01.811Z,4.00
2022-09-28T22:26:31.639Z,4.18
2022-09-28T22:29:01.533Z,4.60
2022-09-28T22:31:32.033Z,4.32
2022-09-28T22:33:59.808Z,4.53
2022-09-28T22:36:27.834Z,4.25
2022-09-28T22:38:57.094Z,4.35
2022-09-28T22:41:24.931Z,4.28
2022-09-28T22:43:53.786Z,3.75
2022-09-28T22:46:24.012Z,4.38
2022-09-28T22:48:53.862Z,4.00
2022-09-28T22:51:22.107Z,3.92
